Amherst, New Hampshire
Current Conditions -  °F | °C
As of 1:51 AM on Saturday 25 Oct 2014 (Local Time) from KASH Reporting Station
Overcast Overcast  
Wind Chill:   Ceiling: 6000
Heat Index:   Visibility: 10mi
Dew Point:   Wind: 6mph
Humidity: 77%   Direction: 320°NW
Pressure: 29.76"   Gusts: NA
Location:  42.86°N, 71.63°W
Report Text: KASH 250551Z AUTO 32005KT 10SM OVC060 09/06 A2976 RMK AO2 51005 T00940055 10094 20072 SLP326 $
Loading
Personal Weather Stations






























Interactive Weather Map New forecast layout! Learn more

10-Day Weather Forecast

Advertisements
Track Severe Weather on mobile